createdAt,value
2017-03-28T00:00:49.593Z,0
2017-03-28T00:01:49.625Z,0
2017-03-28T00:02:49.662Z,0
2017-03-28T00:03:50.003Z,0
2017-03-28T00:04:50.047Z,0
2017-03-28T00:05:49.467Z,0
2017-03-28T00:06:49.798Z,0
2017-03-28T00:07:50.146Z,0
2017-03-28T00:08:50.179Z,0
2017-03-28T00:09:49.922Z,0
2017-03-28T00:10:49.640Z,0
2017-03-28T00:11:49.683Z,0
2017-03-28T00:12:50.629Z,0
2017-03-28T00:13:49.758Z,0
2017-03-28T00:14:49.786Z,0
2017-03-28T00:15:49.827Z,0
2017-03-28T00:16:49.866Z,0
2017-03-28T00:17:49.894Z,0
2017-03-28T00:18:50.233Z,0
2017-03-28T00:19:50.264Z,0
2017-03-28T00:20:49.990Z,0
2017-03-28T00:21:50.031Z,0
2017-03-28T00:22:50.372Z,0
2017-03-28T00:23:50.150Z,0
2017-03-28T00:24:50.134Z,0
2017-03-28T00:25:50.510Z,0
2017-03-28T00:26:50.430Z,0
2017-03-28T00:27:50.553Z,0
2017-03-28T00:28:50.580Z,0
2017-03-28T00:29:50.311Z,0
2017-03-28T00:30:50.343Z,0
2017-03-28T00:31:50.687Z,0
2017-03-28T00:32:50.724Z,0
2017-03-28T00:33:50.781Z,0
2017-03-28T00:34:50.794Z,0
2017-03-28T00:35:50.527Z,0
2017-03-28T00:36:50.565Z,0
2017-03-28T00:37:50.603Z,0
2017-03-28T00:38:51.237Z,0
2017-03-28T00:39:50.667Z,0
2017-03-28T00:40:50.696Z,0
2017-03-28T00:41:50.737Z,0
2017-03-28T00:42:51.382Z,0
2017-03-28T00:43:51.427Z,0
2017-03-28T00:44:51.150Z,0
2017-03-28T00:45:50.872Z,0
2017-03-28T00:46:51.212Z,0
2017-03-28T00:47:51.262Z,0
2017-03-28T00:48:51.594Z,0
2017-03-28T00:49:51.021Z,0
2017-03-28T00:50:51.351Z,0
2017-03-28T00:51:51.084Z,0
2017-03-28T00:52:51.729Z,0
2017-03-28T00:53:51.774Z,0
2017-03-28T00:54:51.495Z,0
2017-03-28T00:55:51.527Z,0
2017-03-28T00:56:51.869Z,0
2017-03-28T00:57:51.903Z,0
2017-03-28T00:58:51.641Z,0
2017-03-28T00:59:51.975Z,0
2017-03-28T01:00:51.708Z,0
2017-03-28T01:01:52.056Z,0
2017-03-28T01:02:51.783Z,0
2017-03-28T01:03:51.813Z,0
2017-03-28T01:04:52.149Z,0
2017-03-28T01:05:51.880Z,0
2017-03-28T01:06:51.920Z,0
2017-03-28T01:07:51.647Z,0
2017-03-28T01:08:51.987Z,0
2017-03-28T01:09:52.021Z,0
2017-03-28T01:10:51.760Z,0
2017-03-28T01:11:52.086Z,0
2017-03-28T01:12:52.427Z,0
2017-03-28T01:13:51.886Z,0
2017-03-28T01:14:52.197Z,0
2017-03-28T01:15:51.933Z,0
2017-03-28T01:16:51.968Z,0
2017-03-28T01:17:52.629Z,0
2017-03-28T01:18:52.037Z,0
2017-03-28T01:19:52.377Z,0
2017-03-28T01:20:52.407Z,0
2017-03-28T01:21:52.148Z,0
2017-03-28T01:22:52.181Z,0
2017-03-28T01:23:52.514Z,0
2017-03-28T01:24:52.546Z,0
2017-03-28T01:25:52.588Z,0
2017-03-28T01:26:52.617Z,0
2017-03-28T01:27:53.263Z,0
2017-03-28T01:28:52.388Z,0
2017-03-28T01:29:52.733Z,0
2017-03-28T01:30:52.457Z,0
2017-03-28T01:31:52.490Z,0
2017-03-28T01:32:53.130Z,0
2017-03-28T01:33:52.871Z,0
2017-03-28T01:34:52.900Z,0
2017-03-28T01:35:52.628Z,0
2017-03-28T01:36:52.660Z,0
2017-03-28T01:37:53.010Z,0
2017-03-28T01:38:52.736Z,0
2017-03-28T01:39:53.073Z,0
2017-03-28T01:40:52.809Z,0
2017-03-28T01:41:52.838Z,0
2017-03-28T01:42:53.486Z,0
2017-03-28T01:43:53.517Z,0
2017-03-28T01:44:52.954Z,0
2017-03-28T01:45:52.979Z,0
2017-03-28T01:46:53.316Z,0
2017-03-28T01:47:53.354Z,0
2017-03-28T01:48:53.691Z,0
2017-03-28T01:49:53.724Z,0
2017-03-28T01:50:53.154Z,0
2017-03-28T01:51:53.190Z,0
2017-03-28T01:52:53.529Z,0
2017-03-28T01:53:53.562Z,0
2017-03-28T01:54:53.899Z,0
2017-03-28T01:55:53.630Z,0
2017-03-28T01:56:53.361Z,0
2017-03-28T01:57:54.309Z,0
2017-03-28T01:58:53.737Z,0
2017-03-28T01:59:54.075Z,0
2017-03-28T02:00:53.807Z,0
2017-03-28T02:01:54.143Z,0
2017-03-28T02:02:53.574Z,0
2017-03-28T02:03:54.264Z,0
2017-03-28T02:04:54.249Z,0
2017-03-28T02:05:53.982Z,0
2017-03-28T02:06:53.730Z,0
2017-03-28T02:07:54.660Z,0
2017-03-28T02:08:54.386Z,0
2017-03-28T02:09:54.420Z,0
2017-03-28T02:10:53.847Z,0
2017-03-28T02:11:53.888Z,0
2017-03-28T02:12:53.923Z,0
2017-03-28T02:13:54.562Z,0
2017-03-28T02:14:54.292Z,0
2017-03-28T02:15:54.356Z,0
2017-03-28T02:16:54.664Z,0
2017-03-28T02:17:54.697Z,0
2017-03-28T02:18:54.734Z,0
2017-03-28T02:19:54.477Z,0
2017-03-28T02:20:54.204Z,0
2017-03-28T02:21:54.237Z,0
2017-03-28T02:22:54.570Z,0
2017-03-28T02:23:54.613Z,0
2017-03-28T02:24:54.341Z,0
2017-03-28T02:25:54.367Z,0
2017-03-28T02:26:54.703Z,0
2017-03-28T02:27:54.748Z,0
2017-03-28T02:28:55.081Z,0
2017-03-28T02:29:55.122Z,0
2017-03-28T02:30:54.860Z,0
2017-03-28T02:31:54.885Z,0
2017-03-28T02:32:55.519Z,0
2017-03-28T02:33:54.656Z,0
2017-03-28T02:34:54.991Z,0
2017-03-28T02:35:55.320Z,0
2017-03-28T02:36:54.750Z,0
2017-03-28T02:37:55.092Z,0
2017-03-28T02:38:54.840Z,0
2017-03-28T02:39:55.457Z,0
2017-03-28T02:40:55.499Z,0
2017-03-28T02:41:54.931Z,0
2017-03-28T02:42:55.565Z,0
2017-03-28T02:43:55.649Z,0
2017-03-28T02:44:55.030Z,0
2017-03-28T02:45:55.365Z,0
2017-03-28T02:46:55.100Z,0
2017-03-28T02:47:55.430Z,0
2017-03-28T02:48:55.475Z,0
2017-03-28T02:49:55.513Z,0
2017-03-28T02:50:55.235Z,0
2017-03-28T02:51:55.574Z,0
2017-03-28T02:52:55.617Z,0
2017-03-28T02:53:55.652Z,0
2017-03-28T02:54:55.677Z,0
2017-03-28T02:55:55.409Z,0
2017-03-28T02:56:55.447Z,0
2017-03-28T02:57:55.787Z,0
2017-03-28T02:58:55.817Z,0
2017-03-28T02:59:55.542Z,0
2017-03-28T03:00:55.881Z,0
2017-03-28T03:01:55.616Z,0
2017-03-28T03:02:55.961Z,0
2017-03-28T03:03:55.684Z,0
2017-03-28T03:04:55.716Z,0
2017-03-28T03:05:56.056Z,0
2017-03-28T03:06:56.115Z,0
2017-03-28T03:07:56.129Z,0
2017-03-28T03:08:56.465Z,0
2017-03-28T03:09:56.200Z,0
2017-03-28T03:10:56.230Z,0
2017-03-28T03:11:55.962Z,0
2017-03-28T03:12:56.602Z,0
2017-03-28T03:13:56.336Z,0
2017-03-28T03:14:56.672Z,0
2017-03-28T03:15:56.702Z,0
2017-03-28T03:16:56.436Z,0
2017-03-28T03:17:56.478Z,0
2017-03-28T03:18:56.805Z,0
2017-03-28T03:19:56.539Z,0
2017-03-28T03:20:56.269Z,0
2017-03-28T03:21:56.303Z,0
2017-03-28T03:22:56.946Z,0
2017-03-28T03:23:56.670Z,0
2017-03-28T03:24:56.707Z,0
2017-03-28T03:25:56.439Z,0
2017-03-28T03:26:56.469Z,0
2017-03-28T03:27:57.118Z,0
2017-03-28T03:28:57.151Z,0
2017-03-28T03:29:56.877Z,0
2017-03-28T03:30:56.909Z,0
2017-03-28T03:31:56.642Z,0
2017-03-28T03:32:56.988Z,0
2017-03-28T03:33:57.014Z,0
2017-03-28T03:34:57.050Z,0
2017-03-28T03:35:57.080Z,0
2017-03-28T03:36:57.123Z,0
2017-03-28T03:37:57.458Z,0
2017-03-28T03:38:56.883Z,0
2017-03-28T03:39:57.220Z,0
2017-03-28T03:40:56.949Z,0
2017-03-28T03:41:57.285Z,0
2017-03-28T03:42:57.326Z,0
2017-03-28T03:43:57.387Z,0
2017-03-28T03:44:57.393Z,0
2017-03-28T03:45:57.425Z,0
2017-03-28T03:46:57.462Z,0
2017-03-28T03:47:57.797Z,0
2017-03-28T03:48:57.532Z,0
2017-03-28T03:49:57.563Z,0
2017-03-28T03:50:57.595Z,0
2017-03-28T03:51:57.321Z,0
2017-03-28T03:52:57.361Z,0
2017-03-28T03:53:57.697Z,0
2017-03-28T03:54:58.033Z,0
2017-03-28T03:55:58.065Z,0
2017-03-28T03:56:57.794Z,0
2017-03-28T03:57:58.135Z,0
2017-03-28T03:58:57.563Z,0
2017-03-28T03:59:57.594Z,0
2017-03-28T04:00:57.937Z,0
2017-03-28T04:01:57.663Z,0
2017-03-28T04:02:58.005Z,0
2017-03-28T04:03:57.737Z,0
2017-03-28T04:04:57.778Z,0
2017-03-28T04:05:57.799Z,0
2017-03-28T04:06:58.139Z,0
2017-03-28T04:07:58.171Z,0
2017-03-28T04:08:58.214Z,0
2017-03-28T04:09:58.247Z,0
2017-03-28T04:10:57.966Z,0
2017-03-28T04:11:58.004Z,0
2017-03-28T04:12:58.340Z,0
2017-03-28T04:13:58.678Z,0
2017-03-28T04:14:58.709Z,0
2017-03-28T04:15:58.141Z,4
2017-03-28T04:16:58.176Z,4
2017-03-28T04:17:58.823Z,0
2017-03-28T04:18:58.558Z,4
2017-03-28T04:19:58.884Z,0
2017-03-28T04:20:58.623Z,4
2017-03-28T04:21:58.644Z,4
2017-03-28T04:22:58.689Z,4
2017-03-28T04:23:58.722Z,4
2017-03-28T04:24:59.298Z,4
2017-03-28T04:25:59.087Z,8
2017-03-28T04:26:59.111Z,8
2017-03-28T04:27:59.452Z,12
2017-03-28T04:28:59.189Z,16
2017-03-28T04:29:59.524Z,16
2017-03-28T04:30:58.950Z,20
2017-03-28T04:31:58.690Z,24
2017-03-28T04:32:59.325Z,28
2017-03-28T04:33:58.752Z,32
2017-03-28T04:34:59.092Z,36
2017-03-28T04:35:59.127Z,48
2017-03-28T04:36:59.165Z,52
2017-03-28T04:37:59.195Z,60
2017-03-28T04:39:00.512Z,72
2017-03-28T04:39:59.561Z,76
2017-03-28T04:40:58.982Z,88
2017-03-28T04:41:59.630Z,100
2017-03-28T04:42:59.364Z,116
2017-03-28T04:44:00.004Z,128
2017-03-28T04:44:59.428Z,144
2017-03-28T04:45:59.156Z,160
2017-03-28T04:46:59.496Z,176
2017-03-28T04:47:59.540Z,196
2017-03-28T04:48:59.264Z,216
2017-03-28T04:50:00.197Z,236
2017-03-28T04:50:59.629Z,260
2017-03-28T04:51:59.364Z,284
2017-03-28T04:52:59.704Z,308
2017-03-28T04:53:59.733Z,332
2017-03-28T04:55:00.064Z,360
2017-03-28T04:55:59.498Z,388
2017-03-28T04:56:59.838Z,420
2017-03-28T04:57:59.568Z,452
2017-03-28T04:59:00.211Z,484
2017-03-28T04:59:59.650Z,520
2017-03-28T05:00:59.968Z,552
2017-03-28T05:02:00.003Z,592
2017-03-28T05:03:00.373Z,628
2017-03-28T05:04:00.368Z,660
2017-03-28T05:05:00.408Z,700
2017-03-28T05:05:59.837Z,732
2017-03-28T05:07:00.771Z,772
2017-03-28T05:08:00.516Z,808
2017-03-28T05:09:00.251Z,852
2017-03-28T05:10:00.273Z,888
2017-03-28T05:11:00.307Z,924
2017-03-28T05:12:00.364Z,960
2017-03-28T05:13:00.676Z,1000
2017-03-28T05:14:01.019Z,1040
2017-03-28T05:15:00.757Z,1076
2017-03-28T05:16:00.232Z,1112
2017-03-28T05:17:00.512Z,1152
2017-03-28T05:18:00.854Z,1188
2017-03-28T05:19:00.323Z,1220
2017-03-28T05:20:01.223Z,1264
2017-03-28T05:21:00.349Z,1296
2017-03-28T05:22:00.381Z,1336
2017-03-28T05:23:00.714Z,1372
2017-03-28T05:24:00.749Z,1408
2017-03-28T05:25:01.083Z,1444
2017-03-28T05:26:00.531Z,1480
2017-03-28T05:27:00.858Z,1520
2017-03-28T05:28:01.196Z,1556
2017-03-28T05:29:01.222Z,1588
2017-03-28T05:30:01.354Z,1624
2017-03-28T05:31:00.989Z,1656
2017-03-28T05:32:01.018Z,1692
2017-03-28T05:33:01.666Z,1724
2017-03-28T05:34:01.089Z,1756
2017-03-28T05:35:01.430Z,1792
2017-03-28T05:36:01.454Z,1820
2017-03-28T05:37:05.323Z,1856
2017-03-28T05:38:01.608Z,1880
2017-03-28T05:39:01.569Z,1912
2017-03-28T05:40:01.595Z,1944
2017-03-28T05:41:01.023Z,1972
2017-03-28T05:42:01.056Z,2000
2017-03-28T05:43:01.707Z,2032
2017-03-28T05:44:01.462Z,2060
2017-03-28T05:45:01.473Z,2092
2017-03-28T05:46:01.492Z,2120
2017-03-28T05:47:01.538Z,2152
2017-03-28T05:48:01.565Z,2188
2017-03-28T05:49:01.603Z,2228
2017-03-28T05:50:01.334Z,2296
2017-03-28T05:51:01.679Z,2376
2017-03-28T05:52:01.698Z,2488
2017-03-28T05:53:01.746Z,2660
2017-03-28T05:54:02.376Z,3020
2017-03-28T05:55:01.804Z,3960
2017-03-28T05:56:01.833Z,6704
2017-03-28T05:57:01.881Z,11536
2017-03-28T05:58:01.609Z,14016
2017-03-28T05:59:01.638Z,14752
2017-03-28T06:00:01.674Z,14656
2017-03-28T06:01:01.705Z,14560
2017-03-28T06:02:02.361Z,15072
2017-03-28T06:03:02.085Z,15488
2017-03-28T06:04:02.122Z,15104
2017-03-28T06:05:02.162Z,14464
2017-03-28T06:06:01.888Z,15072
2017-03-28T06:07:02.237Z,17056
2017-03-28T06:08:02.275Z,18080
2017-03-28T06:09:02.309Z,16960
2017-03-28T06:10:02.673Z,15936
2017-03-28T06:11:02.380Z,16960
2017-03-28T06:12:02.123Z,18368
2017-03-28T06:13:02.497Z,18496
2017-03-28T06:14:02.505Z,17696
2017-03-28T06:15:02.242Z,17600
2017-03-28T06:16:02.277Z,18432
2017-03-28T06:17:02.620Z,19136
2017-03-28T06:18:02.974Z,18656
2017-03-28T06:19:03.011Z,18016
2017-03-28T06:20:02.744Z,18688
2017-03-28T06:21:02.485Z,20448
2017-03-28T06:22:02.833Z,21760
2017-03-28T06:23:02.892Z,21664
2017-03-28T06:24:02.923Z,20704
2017-03-28T06:25:03.260Z,19392
2017-03-28T06:26:02.996Z,19680
2017-03-28T06:27:03.292Z,21824
2017-03-28T06:28:03.689Z,24448
2017-03-28T06:29:03.122Z,25280
2017-03-28T06:30:03.471Z,25152
2017-03-28T06:31:03.205Z,24608
2017-03-28T06:32:02.950Z,24544
2017-03-28T06:33:03.300Z,25472
2017-03-28T06:34:03.372Z,25728
2017-03-28T06:35:04.005Z,25536
2017-03-28T06:36:03.448Z,25376
2017-03-28T06:37:03.172Z,25632
2017-03-28T06:38:04.117Z,26304
2017-03-28T06:39:03.572Z,28128
2017-03-28T06:40:03.903Z,30240
2017-03-28T06:41:03.350Z,31648
2017-03-28T06:42:03.998Z,31040
2017-03-28T06:43:04.183Z,28512
2017-03-28T06:44:03.784Z,26016
2017-03-28T06:45:03.823Z,24992
2017-03-28T06:46:03.567Z,26208
2017-03-28T06:47:03.625Z,28096
2017-03-28T06:48:03.967Z,29632
2017-03-28T06:49:04.008Z,30304
2017-03-28T06:50:04.049Z,29600
2017-03-28T06:51:03.794Z,29440
2017-03-28T06:52:03.838Z,29984
2017-03-28T06:53:03.884Z,31680
2017-03-28T06:54:04.243Z,33664
2017-03-28T06:55:03.981Z,35072
2017-03-28T06:56:04.337Z,33984
2017-03-28T06:57:04.376Z,30688
2017-03-28T06:58:04.730Z,27296
2017-03-28T06:59:04.470Z,26720
2017-03-28T07:00:04.819Z,28704
2017-03-28T07:01:04.299Z,30528
2017-03-28T07:02:04.308Z,31520
2017-03-28T07:03:04.352Z,30240
2017-03-28T07:04:05.021Z,30208
2017-03-28T07:05:04.454Z,33024
2017-03-28T07:06:04.802Z,35840
2017-03-28T07:07:05.150Z,36352
2017-03-28T07:08:04.590Z,34464
2017-03-28T07:09:04.642Z,31104
2017-03-28T07:10:04.693Z,29728
2017-03-28T07:11:04.739Z,31648
2017-03-28T07:12:04.783Z,34912
2017-03-28T07:13:05.141Z,37248
2017-03-28T07:14:04.888Z,37696
2017-03-28T07:15:05.237Z,37856
2017-03-28T07:16:05.282Z,37312
2017-03-28T07:17:05.030Z,36864
2017-03-28T07:18:05.391Z,37440
2017-03-28T07:19:05.427Z,37408
2017-03-28T07:20:05.459Z,38016
2017-03-28T07:21:05.525Z,39616
2017-03-28T07:22:05.568Z,40384
2017-03-28T07:23:05.629Z,39552
2017-03-28T07:24:05.697Z,37248
2017-03-28T07:25:05.573Z,34368
2017-03-28T07:26:06.071Z,33344
2017-03-28T07:27:05.817Z,34240
2017-03-28T07:28:05.863Z,35840
2017-03-28T07:29:05.916Z,38176
2017-03-28T07:30:05.715Z,39616
2017-03-28T07:31:06.019Z,38976
2017-03-28T07:32:06.136Z,37568
2017-03-28T07:33:06.113Z,36928
2017-03-28T07:34:05.862Z,36416
2017-03-28T07:35:05.988Z,36288
2017-03-28T07:36:06.255Z,37216
2017-03-28T07:37:06.607Z,38848
2017-03-28T07:38:06.359Z,40608
2017-03-28T07:39:06.110Z,40576
2017-03-28T07:40:06.459Z,39424
2017-03-28T07:41:06.517Z,39040
2017-03-28T07:42:06.248Z,41632
2017-03-28T07:43:06.604Z,45472
2017-03-28T07:44:06.659Z,50400
2017-03-28T07:45:06.701Z,54272
2017-03-28T07:46:06.472Z,56224
2017-03-28T07:47:06.506Z,57472
2017-03-28T07:48:07.217Z,58912
2017-03-28T07:49:06.625Z,59648
2017-03-28T07:50:06.659Z,57216
2017-03-28T07:51:06.703Z,52160
2017-03-28T07:52:06.906Z,47072
2017-03-28T07:53:12.795Z,43008
2017-03-28T07:54:07.495Z,42816
2017-03-28T07:55:06.904Z,45600
2017-03-28T07:56:07.255Z,50752
2017-03-28T07:57:06.994Z,54656
2017-03-28T07:58:07.487Z,55136
2017-03-28T07:59:07.110Z,52704
2017-03-28T08:00:07.149Z,49888
2017-03-28T08:01:07.198Z,50848
2017-03-28T08:02:07.248Z,54464
2017-03-28T08:03:07.302Z,60224
2017-03-28T08:04:07.655Z,63840
2017-03-28T08:05:07.851Z,64512
2017-03-28T08:06:07.909Z,65056
2017-03-28T08:07:07.806Z,66240
2017-03-28T08:08:07.555Z,67104
2017-03-28T08:09:07.598Z,68000
2017-03-28T08:10:07.952Z,67712
2017-03-28T08:11:07.700Z,67840
2017-03-28T08:12:07.753Z,68000
2017-03-28T08:13:07.802Z,69984
2017-03-28T08:14:08.465Z,71616
2017-03-28T08:15:07.908Z,71456
2017-03-28T08:16:07.961Z,68832
2017-03-28T08:17:08.310Z,64608
2017-03-28T08:18:08.668Z,60448
2017-03-28T08:19:08.417Z,57312
2017-03-28T08:20:08.158Z,57056
2017-03-28T08:21:08.213Z,59488
2017-03-28T08:22:08.569Z,64192
2017-03-28T08:23:08.319Z,68064
2017-03-28T08:24:08.369Z,70240
2017-03-28T08:25:08.420Z,69568
2017-03-28T08:26:08.479Z,65440
2017-03-28T08:27:08.525Z,59488
2017-03-28T08:28:08.580Z,53280
2017-03-28T08:29:08.627Z,48896
2017-03-28T08:30:08.838Z,49600
2017-03-28T08:31:09.035Z,54016
2017-03-28T08:32:09.396Z,59648
2017-03-28T08:33:08.831Z,64256
2017-03-28T08:34:09.488Z,67392
2017-03-28T08:35:10.137Z,68224
2017-03-28T08:36:09.295Z,66784
2017-03-28T08:37:09.355Z,63072
2017-03-28T08:38:09.099Z,59200
2017-03-28T08:39:09.154Z,56352
2017-03-28T08:40:09.209Z,56128
2017-03-28T08:41:09.256Z,58688
2017-03-28T08:42:09.623Z,62976
2017-03-28T08:43:09.667Z,67168
2017-03-28T08:44:09.426Z,69472
2017-03-28T08:45:09.783Z,68096
2017-03-28T08:46:09.829Z,64256
2017-03-28T08:47:10.190Z,60864
2017-03-28T08:48:10.237Z,58784
2017-03-28T08:49:10.291Z,56256
2017-03-28T08:50:09.744Z,55680
2017-03-28T08:51:10.093Z,55072
2017-03-28T08:52:09.840Z,57632
2017-03-28T08:53:10.202Z,63968
2017-03-28T08:54:10.556Z,69376
2017-03-28T08:55:10.311Z,72448
2017-03-28T08:56:10.669Z,73088
2017-03-28T08:57:10.117Z,72256
2017-03-28T08:58:10.471Z,72096
2017-03-28T08:59:10.828Z,73152
2017-03-28T09:00:10.280Z,74080
2017-03-28T09:01:10.938Z,75872
2017-03-28T09:02:11.173Z,76416
2017-03-28T09:03:11.058Z,75904
2017-03-28T09:04:10.800Z,76160
2017-03-28T09:05:11.458Z,77056
2017-03-28T09:06:10.606Z,77344
2017-03-28T09:07:10.969Z,76896
2017-03-28T09:08:11.015Z,76480
2017-03-28T09:09:11.388Z,75904
2017-03-28T09:10:10.823Z,72576
2017-03-28T09:11:10.878Z,68768
2017-03-28T09:12:11.242Z,66848
2017-03-28T09:13:10.988Z,69056
2017-03-28T09:14:11.053Z,76192
2017-03-28T09:15:11.109Z,83296
2017-03-28T09:16:11.163Z,84672
2017-03-28T09:17:11.222Z,79264
2017-03-28T09:18:11.276Z,72832
2017-03-28T09:19:11.635Z,66720
2017-03-28T09:20:11.385Z,64224
2017-03-28T09:21:11.434Z,66592
2017-03-28T09:22:11.800Z,69216
2017-03-28T09:23:12.169Z,70432
2017-03-28T09:24:12.216Z,68064
2017-03-28T09:25:12.271Z,65920
2017-03-28T09:26:12.324Z,66080
2017-03-28T09:27:11.787Z,64064
2017-03-28T09:28:11.834Z,70816
2017-03-28T09:29:12.493Z,72224
2017-03-28T09:30:11.952Z,72320
2017-03-28T09:31:12.008Z,69664
2017-03-28T09:32:12.078Z,67936
2017-03-28T09:33:12.430Z,67776
2017-03-28T09:34:12.183Z,66752
2017-03-28T09:35:12.245Z,65536
2017-03-28T09:36:12.589Z,65504
2017-03-28T09:37:12.342Z,65728
2017-03-28T09:38:12.713Z,65280
2017-03-28T09:39:13.067Z,64512
2017-03-28T09:40:12.824Z,64512
2017-03-28T09:41:12.578Z,67520
2017-03-28T09:42:12.941Z,72480
2017-03-28T09:43:12.992Z,78528
2017-03-28T09:44:13.356Z,81312
2017-03-28T09:45:13.104Z,81024
2017-03-28T09:46:13.165Z,79040
2017-03-28T09:47:12.919Z,77952
2017-03-28T09:48:13.282Z,78688
2017-03-28T09:49:13.033Z,80384
2017-03-28T09:50:13.700Z,80864
2017-03-28T09:51:13.155Z,81152
2017-03-28T09:52:13.517Z,79136
2017-03-28T09:53:13.567Z,76064
2017-03-28T09:54:13.635Z,72256
2017-03-28T09:55:13.685Z,69312
2017-03-28T09:56:13.753Z,68672
2017-03-28T09:57:13.495Z,67424
2017-03-28T09:58:13.863Z,67200
2017-03-28T09:59:14.141Z,70816
2017-03-28T10:00:13.672Z,75744
2017-03-28T10:01:14.030Z,79584
2017-03-28T10:02:14.066Z,79072
2017-03-28T10:03:14.170Z,74080
2017-03-28T10:04:14.212Z,68928
2017-03-28T10:05:14.003Z,66944
2017-03-28T10:06:14.272Z,69696
2017-03-28T10:07:14.386Z,77760
2017-03-28T10:08:14.453Z,83392
2017-03-28T10:09:14.554Z,84288
2017-03-28T10:10:14.365Z,80320
2017-03-28T10:11:14.328Z,75072
2017-03-28T10:12:14.707Z,72960
2017-03-28T10:13:14.807Z,75936
2017-03-28T10:14:14.563Z,83328
2017-03-28T10:15:14.860Z,91456
2017-03-28T10:16:14.836Z,94624
2017-03-28T10:17:14.677Z,92096
2017-03-28T10:18:14.879Z,87072
2017-03-28T10:19:15.029Z,82464
2017-03-28T10:20:15.669Z,78880
2017-03-28T10:21:14.948Z,76672
2017-03-28T10:22:14.980Z,76800
2017-03-28T10:23:15.335Z,79744
2017-03-28T10:24:15.353Z,83424
2017-03-28T10:25:15.250Z,86144
2017-03-28T10:26:15.377Z,84704
2017-03-28T10:27:15.661Z,80160
2017-03-28T10:28:15.420Z,73472
2017-03-28T10:29:15.398Z,66464
2017-03-28T10:30:16.082Z,64384
2017-03-28T10:31:15.804Z,68864
2017-03-28T10:32:15.655Z,75072
2017-03-28T10:33:16.245Z,79872
2017-03-28T10:34:16.040Z,80608
2017-03-28T10:35:16.351Z,74720
2017-03-28T10:36:16.147Z,66464
2017-03-28T10:37:15.869Z,61152
2017-03-28T10:38:16.664Z,61952
2017-03-28T10:39:16.335Z,66336
2017-03-28T10:40:16.351Z,69376
2017-03-28T10:41:16.104Z,71840
2017-03-28T10:42:16.460Z,68864
2017-03-28T10:43:16.819Z,64064
2017-03-28T10:44:16.938Z,63456
2017-03-28T10:45:16.700Z,67520
2017-03-28T10:46:16.398Z,73664
2017-03-28T10:47:16.608Z,82688
2017-03-28T10:48:16.851Z,89792
2017-03-28T10:49:16.573Z,90432
2017-03-28T10:50:16.960Z,85984
2017-03-28T10:51:17.000Z,80896
2017-03-28T10:52:17.676Z,76416
2017-03-28T10:53:17.112Z,75200
2017-03-28T10:54:17.177Z,78176
2017-03-28T10:55:17.288Z,84096
2017-03-28T10:56:17.347Z,88576
2017-03-28T10:57:17.048Z,87904
2017-03-28T10:58:17.417Z,85952
2017-03-28T10:59:17.522Z,83712
2017-03-28T11:00:17.234Z,81856
2017-03-28T11:01:17.289Z,81600
2017-03-28T11:02:17.643Z,83296
2017-03-28T11:03:18.141Z,89568
2017-03-28T11:04:17.895Z,95584
2017-03-28T11:05:17.889Z,99072
2017-03-28T11:06:17.577Z,96736
2017-03-28T11:07:18.238Z,86880
2017-03-28T11:08:18.597Z,75264
2017-03-28T11:09:17.750Z,67456
2017-03-28T11:10:17.819Z,68768
2017-03-28T11:11:17.864Z,77696
2017-03-28T11:12:17.921Z,87712
2017-03-28T11:13:18.289Z,91296
2017-03-28T11:14:18.644Z,87232
2017-03-28T11:15:18.097Z,80992
2017-03-28T11:16:18.457Z,73568
2017-03-28T11:17:18.831Z,74048
2017-03-28T11:18:18.272Z,79424
2017-03-28T11:19:18.630Z,84512
2017-03-28T11:20:18.685Z,86272
2017-03-28T11:21:19.036Z,82848
2017-03-28T11:22:18.796Z,78080
2017-03-28T11:23:18.548Z,75520
2017-03-28T11:24:18.608Z,76960
2017-03-28T11:25:18.661Z,79136
2017-03-28T11:26:18.709Z,80672
2017-03-28T11:27:18.756Z,77632
2017-03-28T11:28:19.121Z,73472
2017-03-28T11:29:19.498Z,68544
2017-03-28T11:30:18.928Z,67168
2017-03-28T11:31:19.276Z,70144
2017-03-28T11:32:19.030Z,76544
2017-03-28T11:33:19.701Z,77984
2017-03-28T11:34:19.739Z,74752
2017-03-28T11:35:19.494Z,68960
2017-03-28T11:36:19.248Z,64160
2017-03-28T11:37:19.595Z,36736
2017-03-28T11:38:19.655Z,8844
2017-03-28T11:39:20.004Z,6476
2017-03-28T11:40:19.444Z,6052
2017-03-28T11:41:19.802Z,5860
2017-03-28T11:42:19.574Z,5724
2017-03-28T11:43:20.207Z,5632
2017-03-28T11:44:19.652Z,5544
2017-03-28T11:45:20.023Z,5452
2017-03-28T11:46:19.749Z,5348
2017-03-28T11:47:19.805Z,5232
2017-03-28T11:48:20.160Z,5132
2017-03-28T11:49:19.906Z,5056
2017-03-28T11:50:19.952Z,4996
2017-03-28T11:51:20.003Z,4936
2017-03-28T11:52:20.351Z,4880
2017-03-28T11:53:20.715Z,4824
2017-03-28T11:54:20.450Z,4780
2017-03-28T11:55:20.198Z,4744
2017-03-28T11:56:20.543Z,4692
2017-03-28T11:57:20.303Z,4632
2017-03-28T11:58:20.339Z,4584
2017-03-28T11:59:20.396Z,4544
2017-03-28T12:00:20.431Z,4520
2017-03-28T12:01:20.488Z,4488
2017-03-28T12:02:20.529Z,4456
2017-03-28T12:03:20.891Z,4428
2017-03-28T12:04:21.230Z,4392
2017-03-28T12:05:20.976Z,4348
2017-03-28T12:06:21.026Z,4304
2017-03-28T12:07:20.783Z,4272
2017-03-28T12:08:21.116Z,4244
2017-03-28T12:09:20.859Z,4220
2017-03-28T12:10:20.912Z,4188
2017-03-28T12:11:20.950Z,4140
2017-03-28T12:12:20.999Z,4100
2017-03-28T12:13:21.517Z,4080
2017-03-28T12:14:21.102Z,4048
2017-03-28T12:15:21.541Z,4020
2017-03-28T12:16:21.191Z,3984
2017-03-28T12:17:21.232Z,3956
2017-03-28T12:18:21.275Z,3936
2017-03-28T12:19:21.628Z,3900
2017-03-28T12:20:21.681Z,3872
2017-03-28T12:21:21.419Z,3848
2017-03-28T12:22:21.762Z,3824
2017-03-28T12:23:21.824Z,3808
2017-03-28T12:24:21.926Z,3780
2017-03-28T12:25:21.612Z,3748
2017-03-28T12:26:21.958Z,3720
2017-03-28T12:27:21.691Z,3680
2017-03-28T12:28:21.743Z,3644
2017-03-28T12:29:21.785Z,3616
2017-03-28T12:30:22.126Z,3564
2017-03-28T12:31:22.244Z,3548
2017-03-28T12:32:22.221Z,3512
2017-03-28T12:33:21.966Z,3488
2017-03-28T12:34:22.012Z,3472
2017-03-28T12:35:22.376Z,3456
2017-03-28T12:36:22.404Z,3448
2017-03-28T12:37:22.151Z,3432
2017-03-28T12:38:22.189Z,3416
2017-03-28T12:39:22.238Z,3404
2017-03-28T12:40:22.283Z,3392
2017-03-28T12:41:22.441Z,3372
2017-03-28T12:42:22.675Z,3368
2017-03-28T12:43:22.416Z,3360
2017-03-28T12:44:23.072Z,3348
2017-03-28T12:45:22.518Z,3336
2017-03-28T12:46:22.544Z,3324
2017-03-28T12:47:22.593Z,3312
2017-03-28T12:48:22.641Z,3300
2017-03-28T12:49:22.691Z,3280
2017-03-28T12:50:22.724Z,3280
2017-03-28T12:51:22.783Z,3276
2017-03-28T12:52:22.812Z,3264
2017-03-28T12:53:22.866Z,3256
2017-03-28T12:54:22.901Z,3244
2017-03-28T12:55:22.953Z,3232
2017-03-28T12:56:22.991Z,3232
2017-03-28T12:57:23.053Z,3240
2017-03-28T12:58:23.082Z,3224
2017-03-28T12:59:23.133Z,3216
2017-03-28T13:00:23.221Z,3204
2017-03-28T13:01:23.441Z,3200
2017-03-28T13:02:23.263Z,3188
2017-03-28T13:03:23.605Z,3180
2017-03-28T13:04:23.652Z,3168
2017-03-28T13:05:23.393Z,3156
2017-03-28T13:06:23.436Z,3148
2017-03-28T13:07:23.487Z,3140
2017-03-28T13:08:23.521Z,3136
2017-03-28T13:09:23.878Z,3124
2017-03-28T13:10:23.619Z,3112
2017-03-28T13:11:23.689Z,3108
2017-03-28T13:12:24.007Z,3092
2017-03-28T13:13:23.748Z,3084
2017-03-28T13:14:24.011Z,3080
2017-03-28T13:15:24.143Z,3056
2017-03-28T13:16:23.884Z,3064
2017-03-28T13:17:23.924Z,3064
2017-03-28T13:18:23.963Z,3056
2017-03-28T13:19:24.014Z,3056
2017-03-28T13:20:24.364Z,3064
2017-03-28T13:21:24.095Z,3044
2017-03-28T13:22:24.451Z,3048
2017-03-28T13:23:24.186Z,3040
2017-03-28T13:24:24.230Z,3044
2017-03-28T13:25:24.268Z,3036
2017-03-28T13:26:24.621Z,3032
2017-03-28T13:27:24.671Z,3032
2017-03-28T13:28:24.398Z,3028
2017-03-28T13:29:24.753Z,3020
2017-03-28T13:30:24.790Z,3012
2017-03-28T13:31:24.548Z,2992
2017-03-28T13:32:24.573Z,2984
2017-03-28T13:33:24.624Z,2980
2017-03-28T13:34:25.276Z,2972
2017-03-28T13:35:24.709Z,2952
2017-03-28T13:36:25.057Z,2944